sensor_id;sensor_type;location;lat;lon;timestamp;P1;durP1;ratioP1;P2;durP2;ratioP2
54599;SDS011;40500;51.084;16.958;2023-07-20T00:02:51;2.30;;;1.60;;
54599;SDS011;40500;51.084;16.958;2023-07-20T00:05:41;4.30;;;1.70;;
54599;SDS011;40500;51.084;16.958;2023-07-20T00:11:27;2.50;;;1.60;;
54599;SDS011;40500;51.084;16.958;2023-07-20T00:14:16;6.00;;;1.70;;
54599;SDS011;40500;51.084;16.958;2023-07-20T00:16:55;4.80;;;1.80;;
54599;SDS011;40500;51.084;16.958;2023-07-20T00:19:44;5.00;;;1.80;;
54599;SDS011;40500;51.084;16.958;2023-07-20T00:22:20;2.70;;;1.50;;
54599;SDS011;40500;51.084;16.958;2023-07-20T00:25:09;3.30;;;1.60;;
54599;SDS011;40500;51.084;16.958;2023-07-20T00:28:00;2.90;;;1.70;;
54599;SDS011;40500;51.084;16.958;2023-07-20T00:30:51;2.80;;;1.90;;
54599;SDS011;40500;51.084;16.958;2023-07-20T00:33:26;3.80;;;1.70;;
54599;SDS011;40500;51.084;16.958;2023-07-20T00:36:16;3.80;;;1.90;;
54599;SDS011;40500;51.084;16.958;2023-07-20T00:39:11;2.10;;;1.60;;
54599;SDS011;40500;51.084;16.958;2023-07-20T00:42:01;3.10;;;1.70;;
54599;SDS011;40500;51.084;16.958;2023-07-20T00:44:50;2.90;;;1.80;;
54599;SDS011;40500;51.084;16.958;2023-07-20T00:47:38;4.60;;;2.00;;
54599;SDS011;40500;51.084;16.958;2023-07-20T00:50:09;3.80;;;1.60;;
54599;SDS011;40500;51.084;16.958;2023-07-20T00:53:03;3.60;;;1.60;;
54599;SDS011;40500;51.084;16.958;2023-07-20T00:55:53;1.90;;;1.70;;
54599;SDS011;40500;51.084;16.958;2023-07-20T00:58:44;4.00;;;1.70;;
54599;SDS011;40500;51.084;16.958;2023-07-20T01:01:34;2.70;;;2.00;;
54599;SDS011;40500;51.084;16.958;2023-07-20T01:04:25;3.10;;;1.60;;
54599;SDS011;40500;51.084;16.958;2023-07-20T01:07:00;1.90;;;1.40;;
54599;SDS011;40500;51.084;16.958;2023-07-20T01:09:59;4.70;;;1.70;;
54599;SDS011;40500;51.084;16.958;2023-07-20T01:12:46;2.80;;;1.90;;
54599;SDS011;40500;51.084;16.958;2023-07-20T01:15:49;2.50;;;1.80;;
54599;SDS011;40500;51.084;16.958;2023-07-20T01:18:23;1.90;;;1.80;;
54599;SDS011;40500;51.084;16.958;2023-07-20T01:21:17;2.50;;;1.70;;
54599;SDS011;40500;51.084;16.958;2023-07-20T01:27:57;3.30;;;2.10;;
54599;SDS011;40500;51.084;16.958;2023-07-20T01:31:17;3.60;;;1.80;;
54599;SDS011;40500;51.084;16.958;2023-07-20T01:34:12;1.90;;;1.60;;
54599;SDS011;40500;51.084;16.958;2023-07-20T01:36:54;5.50;;;2.20;;
54599;SDS011;40500;51.084;16.958;2023-07-20T01:39:33;2.30;;;1.90;;
54599;SDS011;40500;51.084;16.958;2023-07-20T01:42:25;2.70;;;2.10;;
54599;SDS011;40500;51.084;16.958;2023-07-20T01:45:14;2.80;;;1.90;;
54599;SDS011;40500;51.084;16.958;2023-07-20T01:48:08;4.00;;;1.70;;
54599;SDS011;40500;51.084;16.958;2023-07-20T01:51:02;3.40;;;1.80;;
54599;SDS011;40500;51.084;16.958;2023-07-20T01:53:38;2.20;;;2.00;;
54599;SDS011;40500;51.084;16.958;2023-07-20T01:56:31;2.80;;;2.50;;
54599;SDS011;40500;51.084;16.958;2023-07-20T01:59:24;4.80;;;2.10;;
54599;SDS011;40500;51.084;16.958;2023-07-20T02:02:19;3.10;;;1.90;;
54599;SDS011;40500;51.084;16.958;2023-07-20T02:05:10;2.10;;;1.70;;
54599;SDS011;40500;51.084;16.958;2023-07-20T02:08:03;2.50;;;2.10;;
54599;SDS011;40500;51.084;16.958;2023-07-20T02:10:59;3.20;;;1.80;;
54599;SDS011;40500;51.084;16.958;2023-07-20T02:13:53;2.70;;;1.90;;
54599;SDS011;40500;51.084;16.958;2023-07-20T02:16:52;4.00;;;2.00;;
54599;SDS011;40500;51.084;16.958;2023-07-20T02:19:49;3.60;;;2.10;;
54599;SDS011;40500;51.084;16.958;2023-07-20T02:22:28;4.50;;;1.80;;
54599;SDS011;40500;51.084;16.958;2023-07-20T02:25:18;1.80;;;1.60;;
54599;SDS011;40500;51.084;16.958;2023-07-20T02:28:08;2.20;;;1.70;;
54599;SDS011;40500;51.084;16.958;2023-07-20T02:30:57;2.50;;;1.90;;
54599;SDS011;40500;51.084;16.958;2023-07-20T02:33:30;2.80;;;2.00;;
54599;SDS011;40500;51.084;16.958;2023-07-20T02:36:23;2.10;;;1.90;;
54599;SDS011;40500;51.084;16.958;2023-07-20T02:39:15;3.30;;;1.90;;
54599;SDS011;40500;51.084;16.958;2023-07-20T02:42:07;2.00;;;1.50;;
54599;SDS011;40500;51.084;16.958;2023-07-20T02:44:59;1.70;;;1.60;;
54599;SDS011;40500;51.084;16.958;2023-07-20T02:47:51;5.50;;;2.10;;
54599;SDS011;40500;51.084;16.958;2023-07-20T02:50:46;5.50;;;2.40;;
54599;SDS011;40500;51.084;16.958;2023-07-20T02:53:36;9.90;;;2.40;;
54599;SDS011;40500;51.084;16.958;2023-07-20T02:56:28;6.50;;;2.50;;
54599;SDS011;40500;51.084;16.958;2023-07-20T02:59:18;2.60;;;1.90;;
54599;SDS011;40500;51.084;16.958;2023-07-20T03:02:16;4.10;;;2.30;;
54599;SDS011;40500;51.084;16.958;2023-07-20T03:05:07;1.90;;;1.70;;
54599;SDS011;40500;51.084;16.958;2023-07-20T03:07:58;2.10;;;1.90;;
54599;SDS011;40500;51.084;16.958;2023-07-20T03:10:43;4.00;;;2.10;;
54599;SDS011;40500;51.084;16.958;2023-07-20T03:13:33;3.30;;;2.40;;
54599;SDS011;40500;51.084;16.958;2023-07-20T03:16:27;3.50;;;2.60;;
54599;SDS011;40500;51.084;16.958;2023-07-20T03:19:17;10.50;;;2.20;;
54599;SDS011;40500;51.084;16.958;2023-07-20T03:22:05;4.50;;;2.10;;
54599;SDS011;40500;51.084;16.958;2023-07-20T03:24:56;11.40;;;1.80;;
54599;SDS011;40500;51.084;16.958;2023-07-20T03:27:44;4.40;;;1.80;;
54599;SDS011;40500;51.084;16.958;2023-07-20T03:30:43;4.00;;;1.90;;
54599;SDS011;40500;51.084;16.958;2023-07-20T03:33:33;7.60;;;2.20;;
54599;SDS011;40500;51.084;16.958;2023-07-20T03:36:22;4.70;;;1.90;;
54599;SDS011;40500;51.084;16.958;2023-07-20T03:39:11;6.40;;;2.50;;
54599;SDS011;40500;51.084;16.958;2023-07-20T03:41:59;2.30;;;1.90;;
54599;SDS011;40500;51.084;16.958;2023-07-20T03:44:50;2.40;;;2.00;;
54599;SDS011;40500;51.084;16.958;2023-07-20T03:47:43;4.00;;;2.30;;
54599;SDS011;40500;51.084;16.958;2023-07-20T03:50:38;3.70;;;2.00;;
54599;SDS011;40500;51.084;16.958;2023-07-20T03:53:28;4.90;;;1.60;;
54599;SDS011;40500;51.084;16.958;2023-07-20T03:56:20;4.00;;;1.70;;
54599;SDS011;40500;51.084;16.958;2023-07-20T03:59:13;2.40;;;1.60;;
54599;SDS011;40500;51.084;16.958;2023-07-20T04:02:05;5.00;;;1.90;;
54599;SDS011;40500;51.084;16.958;2023-07-20T04:04:54;7.80;;;3.00;;
54599;SDS011;40500;51.084;16.958;2023-07-20T04:07:46;5.80;;;2.20;;
54599;SDS011;40500;51.084;16.958;2023-07-20T04:10:44;4.80;;;2.40;;
54599;SDS011;40500;51.084;16.958;2023-07-20T04:13:36;7.30;;;2.50;;
54599;SDS011;40500;51.084;16.958;2023-07-20T04:16:25;4.40;;;2.60;;
54599;SDS011;40500;51.084;16.958;2023-07-20T04:19:15;5.50;;;2.50;;
54599;SDS011;40500;51.084;16.958;2023-07-20T04:22:08;3.90;;;2.60;;
54599;SDS011;40500;51.084;16.958;2023-07-20T04:25:07;4.50;;;2.40;;
54599;SDS011;40500;51.084;16.958;2023-07-20T04:28:00;6.10;;;2.50;;
54599;SDS011;40500;51.084;16.958;2023-07-20T04:31:08;4.70;;;2.50;;
54599;SDS011;40500;51.084;16.958;2023-07-20T04:34:03;4.40;;;2.90;;
54599;SDS011;40500;51.084;16.958;2023-07-20T04:36:54;5.10;;;2.80;;
54599;SDS011;40500;51.084;16.958;2023-07-20T04:39:50;7.30;;;3.50;;
54599;SDS011;40500;51.084;16.958;2023-07-20T04:42:39;6.30;;;2.20;;
54599;SDS011;40500;51.084;16.958;2023-07-20T04:45:34;7.40;;;3.30;;
54599;SDS011;40500;51.084;16.958;2023-07-20T04:48:26;7.80;;;3.20;;
54599;SDS011;40500;51.084;16.958;2023-07-20T04:51:21;5.20;;;2.70;;
54599;SDS011;40500;51.084;16.958;2023-07-20T04:54:11;4.90;;;3.10;;
54599;SDS011;40500;51.084;16.958;2023-07-20T04:57:11;5.00;;;2.60;;
54599;SDS011;40500;51.084;16.958;2023-07-20T05:00:03;5.00;;;2.90;;
54599;SDS011;40500;51.084;16.958;2023-07-20T05:02:40;5.10;;;2.50;;
54599;SDS011;40500;51.084;16.958;2023-07-20T05:05:32;5.20;;;2.90;;
54599;SDS011;40500;51.084;16.958;2023-07-20T05:08:19;6.80;;;2.80;;
54599;SDS011;40500;51.084;16.958;2023-07-20T05:11:09;6.50;;;3.30;;
54599;SDS011;40500;51.084;16.958;2023-07-20T05:13:58;6.50;;;3.20;;
54599;SDS011;40500;51.084;16.958;2023-07-20T05:16:47;8.30;;;3.80;;
54599;SDS011;40500;51.084;16.958;2023-07-20T05:19:40;4.90;;;2.90;;
54599;SDS011;40500;51.084;16.958;2023-07-20T05:22:31;6.60;;;3.50;;
54599;SDS011;40500;51.084;16.958;2023-07-20T05:25:23;6.10;;;3.00;;
54599;SDS011;40500;51.084;16.958;2023-07-20T05:28:05;7.20;;;3.60;;
54599;SDS011;40500;51.084;16.958;2023-07-20T05:30:53;7.90;;;3.60;;
54599;SDS011;40500;51.084;16.958;2023-07-20T05:33:43;7.10;;;3.60;;
54599;SDS011;40500;51.084;16.958;2023-07-20T05:36:37;7.50;;;3.90;;
54599;SDS011;40500;51.084;16.958;2023-07-20T05:39:28;8.50;;;4.50;;
54599;SDS011;40500;51.084;16.958;2023-07-20T05:42:18;7.60;;;4.00;;
54599;SDS011;40500;51.084;16.958;2023-07-20T05:45:08;8.10;;;3.70;;
54599;SDS011;40500;51.084;16.958;2023-07-20T05:48:02;7.90;;;3.90;;
54599;SDS011;40500;51.084;16.958;2023-07-20T05:50:54;7.10;;;4.00;;
54599;SDS011;40500;51.084;16.958;2023-07-20T05:53:23;6.10;;;4.00;;
54599;SDS011;40500;51.084;16.958;2023-07-20T05:56:13;6.70;;;3.80;;
54599;SDS011;40500;51.084;16.958;2023-07-20T05:59:02;7.50;;;4.20;;
54599;SDS011;40500;51.084;16.958;2023-07-20T06:01:32;5.90;;;4.30;;
54599;SDS011;40500;51.084;16.958;2023-07-20T06:04:23;5.70;;;3.90;;
54599;SDS011;40500;51.084;16.958;2023-07-20T06:07:12;4.40;;;3.90;;
54599;SDS011;40500;51.084;16.958;2023-07-20T06:10:03;9.00;;;4.90;;
54599;SDS011;40500;51.084;16.958;2023-07-20T06:12:53;8.60;;;4.10;;
54599;SDS011;40500;51.084;16.958;2023-07-20T06:15:31;4.60;;;3.80;;
54599;SDS011;40500;51.084;16.958;2023-07-20T06:18:23;7.60;;;3.90;;
54599;SDS011;40500;51.084;16.958;2023-07-20T06:21:16;10.30;;;3.80;;
54599;SDS011;40500;51.084;16.958;2023-07-20T06:23:50;4.80;;;2.90;;
54599;SDS011;40500;51.084;16.958;2023-07-20T06:26:20;5.20;;;3.90;;
54599;SDS011;40500;51.084;16.958;2023-07-20T06:29:11;10.90;;;3.90;;
54599;SDS011;40500;51.084;16.958;2023-07-20T06:32:04;8.10;;;4.30;;
54599;SDS011;40500;51.084;16.958;2023-07-20T06:34:57;6.30;;;4.10;;
54599;SDS011;40500;51.084;16.958;2023-07-20T06:37:45;9.70;;;4.60;;
54599;SDS011;40500;51.084;16.958;2023-07-20T06:40:39;5.30;;;4.00;;
54599;SDS011;40500;51.084;16.958;2023-07-20T06:43:28;6.50;;;3.60;;
54599;SDS011;40500;51.084;16.958;2023-07-20T06:46:21;4.80;;;3.40;;
54599;SDS011;40500;51.084;16.958;2023-07-20T06:49:15;5.70;;;3.80;;
54599;SDS011;40500;51.084;16.958;2023-07-20T06:52:16;6.80;;;3.40;;
54599;SDS011;40500;51.084;16.958;2023-07-20T06:55:09;4.60;;;3.40;;
54599;SDS011;40500;51.084;16.958;2023-07-20T06:57:50;5.40;;;3.60;;
54599;SDS011;40500;51.084;16.958;2023-07-20T07:00:28;8.30;;;3.70;;
54599;SDS011;40500;51.084;16.958;2023-07-20T07:03:24;12.60;;;3.40;;
54599;SDS011;40500;51.084;16.958;2023-07-20T07:05:55;3.90;;;2.90;;
54599;SDS011;40500;51.084;16.958;2023-07-20T07:08:30;5.00;;;2.80;;
54599;SDS011;40500;51.084;16.958;2023-07-20T07:11:20;6.70;;;3.10;;
54599;SDS011;40500;51.084;16.958;2023-07-20T07:14:12;6.00;;;3.20;;
54599;SDS011;40500;51.084;16.958;2023-07-20T07:17:03;4.30;;;2.40;;
54599;SDS011;40500;51.084;16.958;2023-07-20T07:19:53;5.50;;;3.50;;
54599;SDS011;40500;51.084;16.958;2023-07-20T07:22:45;10.90;;;3.40;;
54599;SDS011;40500;51.084;16.958;2023-07-20T07:25:21;4.00;;;2.70;;
54599;SDS011;40500;51.084;16.958;2023-07-20T07:28:12;3.50;;;3.20;;
54599;SDS011;40500;51.084;16.958;2023-07-20T07:31:02;4.20;;;3.00;;
54599;SDS011;40500;51.084;16.958;2023-07-20T07:33:57;10.80;;;3.70;;
54599;SDS011;40500;51.084;16.958;2023-07-20T07:36:53;9.40;;;3.60;;
54599;SDS011;40500;51.084;16.958;2023-07-20T07:39:50;4.00;;;3.20;;
54599;SDS011;40500;51.084;16.958;2023-07-20T07:42:19;4.00;;;2.50;;
54599;SDS011;40500;51.084;16.958;2023-07-20T07:44:54;5.90;;;2.60;;
54599;SDS011;40500;51.084;16.958;2023-07-20T07:47:46;5.10;;;2.50;;
54599;SDS011;40500;51.084;16.958;2023-07-20T07:50:38;3.40;;;2.70;;
54599;SDS011;40500;51.084;16.958;2023-07-20T07:53:28;5.30;;;2.70;;
54599;SDS011;40500;51.084;16.958;2023-07-20T07:56:21;3.80;;;2.50;;
54599;SDS011;40500;51.084;16.958;2023-07-20T07:58:54;2.90;;;2.10;;
54599;SDS011;40500;51.084;16.958;2023-07-20T08:01:49;5.10;;;2.70;;
54599;SDS011;40500;51.084;16.958;2023-07-20T08:04:24;2.70;;;2.40;;
54599;SDS011;40500;51.084;16.958;2023-07-20T08:07:03;4.40;;;2.60;;
54599;SDS011;40500;51.084;16.958;2023-07-20T08:09:56;5.50;;;2.40;;
54599;SDS011;40500;51.084;16.958;2023-07-20T08:12:49;2.50;;;2.30;;
54599;SDS011;40500;51.084;16.958;2023-07-20T08:15:19;2.00;;;1.50;;
54599;SDS011;40500;51.084;16.958;2023-07-20T08:18:23;3.90;;;1.70;;
54599;SDS011;40500;51.084;16.958;2023-07-20T08:21:19;3.10;;;1.60;;
54599;SDS011;40500;51.084;16.958;2023-07-20T08:24:06;1.80;;;1.40;;
54599;SDS011;40500;51.084;16.958;2023-07-20T08:27:13;1.70;;;1.40;;
54599;SDS011;40500;51.084;16.958;2023-07-20T08:29:56;3.10;;;1.90;;
54599;SDS011;40500;51.084;16.958;2023-07-20T08:32:33;1.70;;;1.60;;
54599;SDS011;40500;51.084;16.958;2023-07-20T08:35:46;2.10;;;1.90;;
54599;SDS011;40500;51.084;16.958;2023-07-20T08:38:24;3.70;;;2.10;;
54599;SDS011;40500;51.084;16.958;2023-07-20T08:41:15;2.30;;;2.10;;
54599;SDS011;40500;51.084;16.958;2023-07-20T08:44:09;2.20;;;2.00;;
54599;SDS011;40500;51.084;16.958;2023-07-20T08:47:00;2.20;;;2.00;;
54599;SDS011;40500;51.084;16.958;2023-07-20T08:49:38;1.90;;;1.60;;
54599;SDS011;40500;51.084;16.958;2023-07-20T08:52:30;2.00;;;1.80;;
54599;SDS011;40500;51.084;16.958;2023-07-20T08:55:29;1.80;;;1.70;;
54599;SDS011;40500;51.084;16.958;2023-07-20T08:58:00;1.80;;;1.60;;
54599;SDS011;40500;51.084;16.958;2023-07-20T09:00:50;1.60;;;1.40;;
54599;SDS011;40500;51.084;16.958;2023-07-20T09:03:42;1.10;;;1.00;;
54599;SDS011;40500;51.084;16.958;2023-07-20T09:06:33;2.80;;;1.20;;
54599;SDS011;40500;51.084;16.958;2023-07-20T09:09:27;2.30;;;1.40;;
54599;SDS011;40500;51.084;16.958;2023-07-20T09:12:17;2.00;;;1.60;;
54599;SDS011;40500;51.084;16.958;2023-07-20T09:15:09;3.40;;;2.20;;
54599;SDS011;40500;51.084;16.958;2023-07-20T09:18:00;3.50;;;1.60;;
54599;SDS011;40500;51.084;16.958;2023-07-20T09:20:51;2.10;;;1.80;;
54599;SDS011;40500;51.084;16.958;2023-07-20T09:23:41;3.10;;;1.70;;
54599;SDS011;40500;51.084;16.958;2023-07-20T09:26:22;4.20;;;1.70;;
54599;SDS011;40500;51.084;16.958;2023-07-20T09:28:52;2.40;;;1.80;;
54599;SDS011;40500;51.084;16.958;2023-07-20T09:31:26;2.40;;;2.10;;
54599;SDS011;40500;51.084;16.958;2023-07-20T09:34:06;2.40;;;1.70;;
54599;SDS011;40500;51.084;16.958;2023-07-20T09:36:36;1.80;;;1.40;;
54599;SDS011;40500;51.084;16.958;2023-07-20T09:39:15;3.40;;;1.30;;
54599;SDS011;40500;51.084;16.958;2023-07-20T09:41:57;1.90;;;1.30;;
54599;SDS011;40500;51.084;16.958;2023-07-20T09:44:35;2.50;;;1.00;;
54599;SDS011;40500;51.084;16.958;2023-07-20T09:47:08;1.00;;;1.00;;
54599;SDS011;40500;51.084;16.958;2023-07-20T09:49:59;2.60;;;1.10;;
54599;SDS011;40500;51.084;16.958;2023-07-20T09:52:56;0.90;;;0.90;;
54599;SDS011;40500;51.084;16.958;2023-07-20T09:55:31;2.10;;;1.10;;
54599;SDS011;40500;51.084;16.958;2023-07-20T09:58:23;0.80;;;0.80;;
54599;SDS011;40500;51.084;16.958;2023-07-20T10:01:17;1.20;;;1.00;;
54599;SDS011;40500;51.084;16.958;2023-07-20T10:03:54;2.70;;;1.00;;
54599;SDS011;40500;51.084;16.958;2023-07-20T10:06:53;2.10;;;0.90;;
54599;SDS011;40500;51.084;16.958;2023-07-20T10:09:52;1.00;;;1.00;;
54599;SDS011;40500;51.084;16.958;2023-07-20T10:12:52;2.20;;;0.90;;
54599;SDS011;40500;51.084;16.958;2023-07-20T10:15:46;2.50;;;0.70;;
54599;SDS011;40500;51.084;16.958;2023-07-20T10:18:31;2.50;;;0.80;;
54599;SDS011;40500;51.084;16.958;2023-07-20T10:21:42;2.40;;;0.70;;
54599;SDS011;40500;51.084;16.958;2023-07-20T10:24:25;0.60;;;0.60;;
54599;SDS011;40500;51.084;16.958;2023-07-20T10:27:21;1.50;;;0.70;;
54599;SDS011;40500;51.084;16.958;2023-07-20T10:30:10;0.80;;;0.80;;
54599;SDS011;40500;51.084;16.958;2023-07-20T10:32:46;1.40;;;0.90;;
54599;SDS011;40500;51.084;16.958;2023-07-20T10:35:51;1.60;;;0.80;;
54599;SDS011;40500;51.084;16.958;2023-07-20T10:38:41;3.10;;;0.80;;
54599;SDS011;40500;51.084;16.958;2023-07-20T10:41:20;1.10;;;0.80;;
54599;SDS011;40500;51.084;16.958;2023-07-20T10:44:12;3.60;;;1.00;;
54599;SDS011;40500;51.084;16.958;2023-07-20T10:47:09;1.50;;;1.00;;
54599;SDS011;40500;51.084;16.958;2023-07-20T10:50:00;2.40;;;1.00;;
54599;SDS011;40500;51.084;16.958;2023-07-20T10:53:04;1.50;;;0.70;;
54599;SDS011;40500;51.084;16.958;2023-07-20T10:56:11;1.00;;;0.70;;
54599;SDS011;40500;51.084;16.958;2023-07-20T10:59:04;1.30;;;1.10;;
54599;SDS011;40500;51.084;16.958;2023-07-20T11:02:07;1.10;;;1.10;;
54599;SDS011;40500;51.084;16.958;2023-07-20T11:05:03;1.80;;;1.00;;
54599;SDS011;40500;51.084;16.958;2023-07-20T11:07:52;3.10;;;1.10;;
54599;SDS011;40500;51.084;16.958;2023-07-20T11:10:43;3.80;;;1.00;;
54599;SDS011;40500;51.084;16.958;2023-07-20T11:13:35;1.20;;;1.10;;
54599;SDS011;40500;51.084;16.958;2023-07-20T11:16:36;1.20;;;1.10;;
54599;SDS011;40500;51.084;16.958;2023-07-20T11:19:16;1.10;;;1.00;;
54599;SDS011;40500;51.084;16.958;2023-07-20T11:22:15;0.80;;;0.80;;
54599;SDS011;40500;51.084;16.958;2023-07-20T11:25:08;1.20;;;1.10;;
54599;SDS011;40500;51.084;16.958;2023-07-20T11:27:58;3.10;;;1.00;;
54599;SDS011;40500;51.084;16.958;2023-07-20T11:30:57;1.00;;;0.90;;
54599;SDS011;40500;51.084;16.958;2023-07-20T11:33:46;1.20;;;1.10;;
54599;SDS011;40500;51.084;16.958;2023-07-20T11:36:37;2.20;;;1.20;;
54599;SDS011;40500;51.084;16.958;2023-07-20T11:39:15;1.70;;;1.40;;
54599;SDS011;40500;51.084;16.958;2023-07-20T11:42:06;1.60;;;1.50;;
54599;SDS011;40500;51.084;16.958;2023-07-20T11:44:57;1.40;;;1.30;;
54599;SDS011;40500;51.084;16.958;2023-07-20T11:47:49;1.50;;;1.40;;
54599;SDS011;40500;51.084;16.958;2023-07-20T11:50:47;1.80;;;1.70;;
54599;SDS011;40500;51.084;16.958;2023-07-20T11:53:40;2.20;;;1.80;;
54599;SDS011;40500;51.084;16.958;2023-07-20T11:56:32;1.80;;;1.40;;
54599;SDS011;40500;51.084;16.958;2023-07-20T11:59:25;2.10;;;2.00;;
54599;SDS011;40500;51.084;16.958;2023-07-20T12:01:54;2.30;;;2.00;;
54599;SDS011;40500;51.084;16.958;2023-07-20T12:04:26;3.00;;;1.60;;
54599;SDS011;40500;51.084;16.958;2023-07-20T12:06:58;2.20;;;1.60;;
54599;SDS011;40500;51.084;16.958;2023-07-20T12:10:03;2.10;;;1.50;;
54599;SDS011;40500;51.084;16.958;2023-07-20T12:12:47;2.00;;;1.50;;
54599;SDS011;40500;51.084;16.958;2023-07-20T12:15:30;3.40;;;1.30;;
54599;SDS011;40500;51.084;16.958;2023-07-20T12:18:00;1.80;;;1.30;;
54599;SDS011;40500;51.084;16.958;2023-07-20T12:20:39;2.60;;;1.40;;
54599;SDS011;40500;51.084;16.958;2023-07-20T12:23:34;1.10;;;1.00;;
54599;SDS011;40500;51.084;16.958;2023-07-20T12:26:09;0.80;;;0.80;;
54599;SDS011;40500;51.084;16.958;2023-07-20T12:29:08;1.10;;;1.10;;
54599;SDS011;40500;51.084;16.958;2023-07-20T12:32:12;2.50;;;0.90;;
54599;SDS011;40500;51.084;16.958;2023-07-20T12:34:43;0.90;;;0.90;;
54599;SDS011;40500;51.084;16.958;2023-07-20T12:37:36;1.00;;;1.00;;
54599;SDS011;40500;51.084;16.958;2023-07-20T12:40:28;0.90;;;0.90;;
54599;SDS011;40500;51.084;16.958;2023-07-20T12:43:30;0.80;;;0.80;;
54599;SDS011;40500;51.084;16.958;2023-07-20T12:46:24;1.30;;;1.20;;
54599;SDS011;40500;51.084;16.958;2023-07-20T12:49:26;1.80;;;1.30;;
54599;SDS011;40500;51.084;16.958;2023-07-20T12:52:15;1.40;;;1.10;;
54599;SDS011;40500;51.084;16.958;2023-07-20T12:57:25;1.00;;;1.00;;
54599;SDS011;40500;51.084;16.958;2023-07-20T12:59:57;0.80;;;0.80;;
54599;SDS011;40500;51.084;16.958;2023-07-20T13:02:55;1.40;;;0.90;;
54599;SDS011;40500;51.084;16.958;2023-07-20T13:05:54;1.00;;;0.90;;
54599;SDS011;40500;51.084;16.958;2023-07-20T13:08:40;1.00;;;1.00;;
54599;SDS011;40500;51.084;16.958;2023-07-20T13:11:28;0.80;;;0.80;;
54599;SDS011;40500;51.084;16.958;2023-07-20T13:13:58;1.60;;;0.80;;
54599;SDS011;40500;51.084;16.958;2023-07-20T13:16:31;0.80;;;0.80;;
54599;SDS011;40500;51.084;16.958;2023-07-20T13:19:01;1.40;;;0.80;;
54599;SDS011;40500;51.084;16.958;2023-07-20T13:21:32;1.00;;;1.00;;
54599;SDS011;40500;51.084;16.958;2023-07-20T13:24:01;1.20;;;1.00;;
54599;SDS011;40500;51.084;16.958;2023-07-20T13:26:31;0.80;;;0.80;;
54599;SDS011;40500;51.084;16.958;2023-07-20T13:29:00;0.70;;;0.70;;
54599;SDS011;40500;51.084;16.958;2023-07-20T13:31:29;0.80;;;0.70;;
54599;SDS011;40500;51.084;16.958;2023-07-20T13:34:01;1.00;;;0.70;;
54599;SDS011;40500;51.084;16.958;2023-07-20T13:36:30;0.40;;;0.40;;
54599;SDS011;40500;51.084;16.958;2023-07-20T13:39:02;0.80;;;0.60;;
54599;SDS011;40500;51.084;16.958;2023-07-20T13:41:36;0.60;;;0.60;;
54599;SDS011;40500;51.084;16.958;2023-07-20T13:44:09;1.50;;;0.60;;
54599;SDS011;40500;51.084;16.958;2023-07-20T13:46:55;1.70;;;0.50;;
54599;SDS011;40500;51.084;16.958;2023-07-20T13:49:51;0.80;;;0.50;;
54599;SDS011;40500;51.084;16.958;2023-07-20T13:52:30;0.90;;;0.60;;
54599;SDS011;40500;51.084;16.958;2023-07-20T13:55:08;0.90;;;0.60;;
54599;SDS011;40500;51.084;16.958;2023-07-20T13:58:26;1.00;;;0.50;;
54599;SDS011;40500;51.084;16.958;2023-07-20T14:01:18;0.60;;;0.60;;
54599;SDS011;40500;51.084;16.958;2023-07-20T14:03:56;0.60;;;0.40;;
54599;SDS011;40500;51.084;16.958;2023-07-20T14:06:51;0.30;;;0.30;;
54599;SDS011;40500;51.084;16.958;2023-07-20T14:09:50;1.10;;;0.50;;
54599;SDS011;40500;51.084;16.958;2023-07-20T14:12:52;1.90;;;0.40;;
54599;SDS011;40500;51.084;16.958;2023-07-20T14:15:31;0.50;;;0.50;;
54599;SDS011;40500;51.084;16.958;2023-07-20T14:18:24;0.80;;;0.50;;
54599;SDS011;40500;51.084;16.958;2023-07-20T14:21:08;0.40;;;0.40;;
54599;SDS011;40500;51.084;16.958;2023-07-20T14:24:09;0.50;;;0.50;;
54599;SDS011;40500;51.084;16.958;2023-07-20T14:27:13;1.20;;;0.50;;
54599;SDS011;40500;51.084;16.958;2023-07-20T14:30:14;0.80;;;0.60;;
54599;SDS011;40500;51.084;16.958;2023-07-20T14:33:28;1.60;;;0.40;;
54599;SDS011;40500;51.084;16.958;2023-07-20T14:36:24;0.70;;;0.60;;
54599;SDS011;40500;51.084;16.958;2023-07-20T14:42:21;0.50;;;0.50;;
54599;SDS011;40500;51.084;16.958;2023-07-20T14:45:14;0.60;;;0.50;;
54599;SDS011;40500;51.084;16.958;2023-07-20T14:48:32;1.00;;;0.50;;
54599;SDS011;40500;51.084;16.958;2023-07-20T14:51:56;0.40;;;0.40;;
54599;SDS011;40500;51.084;16.958;2023-07-20T14:55:21;0.30;;;0.30;;
54599;SDS011;40500;51.084;16.958;2023-07-20T14:58:22;0.60;;;0.50;;
54599;SDS011;40500;51.084;16.958;2023-07-20T15:01:32;0.60;;;0.50;;
54599;SDS011;40500;51.084;16.958;2023-07-20T15:05:03;0.40;;;0.40;;
54599;SDS011;40500;51.084;16.958;2023-07-20T15:08:28;0.30;;;0.30;;
54599;SDS011;40500;51.084;16.958;2023-07-20T15:11:30;0.40;;;0.40;;
54599;SDS011;40500;51.084;16.958;2023-07-20T15:17:36;0.70;;;0.50;;
54599;SDS011;40500;51.084;16.958;2023-07-20T15:23:19;0.90;;;0.50;;
54599;SDS011;40500;51.084;16.958;2023-07-20T15:26:12;1.20;;;0.40;;
54599;SDS011;40500;51.084;16.958;2023-07-20T15:29:02;1.70;;;0.30;;
54599;SDS011;40500;51.084;16.958;2023-07-20T15:31:55;0.90;;;0.40;;
54599;SDS011;40500;51.084;16.958;2023-07-20T15:34:38;0.80;;;0.50;;
54599;SDS011;40500;51.084;16.958;2023-07-20T15:37:12;1.60;;;0.50;;
54599;SDS011;40500;51.084;16.958;2023-07-20T15:39:56;0.50;;;0.40;;
54599;SDS011;40500;51.084;16.958;2023-07-20T15:42:54;0.50;;;0.40;;
54599;SDS011;40500;51.084;16.958;2023-07-20T15:49:10;0.50;;;0.40;;
54599;SDS011;40500;51.084;16.958;2023-07-20T15:52:02;1.50;;;0.50;;
54599;SDS011;40500;51.084;16.958;2023-07-20T15:54:58;0.50;;;0.50;;
54599;SDS011;40500;51.084;16.958;2023-07-20T15:58:04;2.20;;;0.40;;
54599;SDS011;40500;51.084;16.958;2023-07-20T16:01:06;0.50;;;0.40;;
54599;SDS011;40500;51.084;16.958;2023-07-20T16:04:49;1.10;;;0.50;;
54599;SDS011;40500;51.084;16.958;2023-07-20T16:07:55;0.40;;;0.40;;
54599;SDS011;40500;51.084;16.958;2023-07-20T16:11:30;0.40;;;0.40;;
54599;SDS011;40500;51.084;16.958;2023-07-20T16:14:32;0.40;;;0.40;;
54599;SDS011;40500;51.084;16.958;2023-07-20T16:17:35;1.20;;;0.40;;
54599;SDS011;40500;51.084;16.958;2023-07-20T16:20:35;0.30;;;0.30;;
54599;SDS011;40500;51.084;16.958;2023-07-20T16:23:37;0.50;;;0.50;;
54599;SDS011;40500;51.084;16.958;2023-07-20T16:26:31;1.20;;;0.70;;
54599;SDS011;40500;51.084;16.958;2023-07-20T16:29:31;0.80;;;0.60;;
54599;SDS011;40500;51.084;16.958;2023-07-20T16:32:21;0.50;;;0.50;;
54599;SDS011;40500;51.084;16.958;2023-07-20T16:35:07;2.50;;;0.60;;
54599;SDS011;40500;51.084;16.958;2023-07-20T16:38:01;1.30;;;0.50;;
54599;SDS011;40500;51.084;16.958;2023-07-20T16:40:58;1.90;;;0.50;;
54599;SDS011;40500;51.084;16.958;2023-07-20T16:44:02;0.40;;;0.40;;
54599;SDS011;40500;51.084;16.958;2023-07-20T16:47:03;0.70;;;0.40;;
54599;SDS011;40500;51.084;16.958;2023-07-20T16:49:55;0.40;;;0.40;;
54599;SDS011;40500;51.084;16.958;2023-07-20T16:52:26;0.50;;;0.50;;
54599;SDS011;40500;51.084;16.958;2023-07-20T16:55:18;1.70;;;0.60;;
54599;SDS011;40500;51.084;16.958;2023-07-20T16:58:11;1.00;;;0.50;;
54599;SDS011;40500;51.084;16.958;2023-07-20T17:00:46;0.40;;;0.40;;
54599;SDS011;40500;51.084;16.958;2023-07-20T17:03:45;0.70;;;0.60;;
54599;SDS011;40500;51.084;16.958;2023-07-20T17:06:38;1.10;;;0.40;;
54599;SDS011;40500;51.084;16.958;2023-07-20T17:11:59;0.40;;;0.40;;
54599;SDS011;40500;51.084;16.958;2023-07-20T17:14:50;0.70;;;0.40;;